Terminal Aerodrome Forecast
Issued by NWS Louisville, KY

Home | Current Version | Previous Version | Text Only | Print | Product List | Glossary On
Versions: 1 2 3 4 5 6 7 8 9 10 11 12 13
000
FTUS43 KLMK 281700
TAFLEX
TAF
KLEX 281726Z 2818/0118 06010KT P6SM BKN050
     FM010500 10005KT 5SM -SNPL BR BKN025
     FM010900 11005KT 4SM -FZRAPL BR OVC012
     FM011200 16007KT 5SM -RA BR OVC009=

USA.gov is the U.S. government's official web portal to all federal, state and local government web resources and services.